Kine — C6WT4 — position and weather

sailwx.info

Track history (hours):
 
Tides and Currents Weather Stations Pressure Air Temp Water Temp Dewpoint Dewpoint Depression Visibility Wind Speed Wind Dir Waves Ship Positions

Kine

Last reported at 2014-Dec-19 06:31 UTC. Time now 2014-Dec-19 07:18 UTC.
Position N 53°54' E 011°28'.

Length 89 m; draft 4.9 m.

Type: Cargo ship. MMSI: 311117000.

Date/timePositionNaut miles runAvg speedWind from/ knotsBaromVisibWave heightAir tempDewpointWater temp
2014-Dec-19 06:31N 53°54' E 011°28'0 0.0
2014-Dec-19 05:31N 53°54' E 011°28'0 0.5
2014-Dec-19 04:33N 53°54' E 011°27'8 7.9
2014-Dec-19 03:33N 54°01' E 011°20'9 7.1
2014-Dec-19 02:18N 54°09' E 011°25'7 9.2
2014-Dec-19 01:33N 54°16' E 011°23'9 9.4
2014-Dec-19 00:33N 54°26' E 011°22'1010.0
2014-Dec-18 23:33N 54°34' E 011°13'153 8.3
2014-Dec-18 05:09N 57°06' E 010°47'35 9.3
2014-Dec-18 01:24N 57°41' E 010°44'150 8.8
2014-Dec-17 08:22N 58°15' E 006°09'7 8.9
2014-Dec-17 07:33N 58°19' E 005°59'8 8.3
2014-Dec-17 06:33N 58°25' E 005°47'8 7.9
2014-Dec-17 05:33N 58°31' E 005°37'16 7.9
2014-Dec-17 03:33N 58°44' E 005°21'7 7.3
2014-Dec-17 02:32N 58°51' E 005°13'7 6.8
2014-Dec-17 01:33N 58°56' E 005°06'7 7.3
2014-Dec-17 00:33N 59°02' E 004°58'  
2014-Dec-13 03:25N 66°16' E 012°14'8 9.4
2014-Dec-13 02:33N 66°15' E 012°34'  
2014-Dec-10 13:33N 66°15' E 012°33'176 8.7
2014-Dec-09 17:24N 63°37' E 009°27'8 9.2
2014-Dec-09 16:30N 63°39' E 009°45'910.0
2014-Dec-09 15:33N 63°31' E 009°54'9 8.9
2014-Dec-09 14:33N 63°22' E 009°57'4 4.0
2014-Dec-09 13:31N 63°19' E 009°51'0 0.0
2014-Dec-09 12:31N 63°19' E 009°51'0 0.0
2014-Dec-09 11:16N 63°19' E 009°51'0 0.0
2014-Dec-09 10:22N 63°19' E 009°51'0 0.0
2014-Dec-09 09:28N 63°19' E 009°51'0 0.0
2014-Dec-09 08:31N 63°19' E 009°51'0 0.0
2014-Dec-09 07:28N 63°19' E 009°51'  
Track history (hours):
 
Tides and Currents Weather Stations Pressure Air Temp Water Temp Dewpoint Dewpoint Depression Visibility Wind Speed Wind Dir Waves Ship Positions

Kine

Last reported at 2014-Dec-19 06:31 UTC. Time now 2014-Dec-19 07:18 UTC.
Position N 53°54' E 011°28'.

Length 89 m; draft 4.9 m.

Type: Cargo ship. MMSI: 311117000.

Date/timePositionNaut miles runAvg speedWind from/ knotsBaromVisibWave heightAir tempDewpointWater temp
2014-Dec-19 06:31N 53°54' E 011°28'0 0.0
2014-Dec-19 05:31N 53°54' E 011°28'0 0.5
2014-Dec-19 04:33N 53°54' E 011°27'8 7.9
2014-Dec-19 03:33N 54°01' E 011°20'9 7.1
2014-Dec-19 02:18N 54°09' E 011°25'7 9.2
2014-Dec-19 01:33N 54°16' E 011°23'9 9.4
2014-Dec-19 00:33N 54°26' E 011°22'1010.0
2014-Dec-18 23:33N 54°34' E 011°13'153 8.3
2014-Dec-18 05:09N 57°06' E 010°47'35 9.3
2014-Dec-18 01:24N 57°41' E 010°44'150 8.8
2014-Dec-17 08:22N 58°15' E 006°09'7 8.9
2014-Dec-17 07:33N 58°19' E 005°59'8 8.3
2014-Dec-17 06:33N 58°25' E 005°47'8 7.9
2014-Dec-17 05:33N 58°31' E 005°37'16 7.9
2014-Dec-17 03:33N 58°44' E 005°21'7 7.3
2014-Dec-17 02:32N 58°51' E 005°13'7 6.8
2014-Dec-17 01:33N 58°56' E 005°06'7 7.3
2014-Dec-17 00:33N 59°02' E 004°58'  
2014-Dec-13 03:25N 66°16' E 012°14'8 9.4
2014-Dec-13 02:33N 66°15' E 012°34'  
2014-Dec-10 13:33N 66°15' E 012°33'176 8.7
2014-Dec-09 17:24N 63°37' E 009°27'8 9.2
2014-Dec-09 16:30N 63°39' E 009°45'910.0
2014-Dec-09 15:33N 63°31' E 009°54'9 8.9
2014-Dec-09 14:33N 63°22' E 009°57'4 4.0
2014-Dec-09 13:31N 63°19' E 009°51'0 0.0
2014-Dec-09 12:31N 63°19' E 009°51'0 0.0
2014-Dec-09 11:16N 63°19' E 009°51'0 0.0
2014-Dec-09 10:22N 63°19' E 009°51'0 0.0
2014-Dec-09 09:28N 63°19' E 009°51'0 0.0
2014-Dec-09 08:31N 63°19' E 009°51'0 0.0
2014-Dec-09 07:28N 63°19' E 009°51'  

Dump ship's entire track history